Time;durP1;ratioP1;P1;durP2;ratioP2;P2;SDS_P1;SDS_P2;PMS_P1;PMS_P2;Temp;Humidity;BMP_temperature;BMP_pressure;BME280_temperature;BME280_humidity;BME280_pressure;Samples;Min_cycle;Max_cycle;Signal;HPM_P1;HPM_P2
2021/04/12 00:01:55;;;;;;;3.00;1.20;;;17.60;50.30;;;;;;5060649;28;20177;-64
2021/04/12 00:04:49;;;;;;;1.02;0.80;;;17.60;50.30;;;;;;5095655;28;20219;-66
2021/04/12 00:07:19;;;;;;;1.20;0.70;;;17.60;50.40;;;;;;5091668;28;20544;-67
2021/04/12 00:10:16;;;;;;;1.30;0.88;;;17.50;50.30;;;;;;5076869;28;20201;-65
2021/04/12 00:13:05;;;;;;;0.50;0.50;;;17.60;50.40;;;;;;5072890;28;20221;-68
2021/04/12 00:15:34;;;;;;;1.10;0.65;;;17.50;50.40;;;;;;5057016;28;20163;-68
2021/04/12 00:18:20;;;;;;;0.95;0.70;;;17.50;50.30;;;;;;5057788;28;20181;-68
2021/04/12 00:21:12;;;;;;;1.38;0.90;;;17.50;50.30;;;;;;5075326;28;20249;-68
2021/04/12 00:23:53;;;;;;;0.75;0.75;;;17.50;50.30;;;;;;5073255;28;20228;-64
2021/04/12 00:26:30;;;;;;;1.38;0.90;;;17.50;50.30;;;;;;5058901;28;20179;-65
2021/04/12 00:29:00;;;;;;;0.88;0.73;;;17.50;50.30;;;;;;5074161;28;20159;-64
2021/04/12 00:31:30;;;;;;;2.60;1.05;;;17.50;50.30;;;;;;5056598;28;20252;-64
2021/04/12 00:34:00;;;;;;;1.42;0.60;;;17.40;50.30;;;;;;5073716;28;20202;-64
2021/04/12 00:36:45;;;;;;;0.77;0.55;;;17.40;50.30;;;;;;5073140;28;20185;-66
2021/04/12 00:39:36;;;;;;;1.50;0.80;;;17.40;50.30;;;;;;5073640;28;20159;-68
2021/04/12 00:42:27;;;;;;;0.60;0.60;;;17.40;50.30;;;;;;5073697;28;20657;-70
2021/04/12 00:45:29;;;;;;;0.82;0.60;;;17.40;50.30;;;;;;5072988;28;20162;-64
2021/04/12 00:48:10;;;;;;;1.10;0.68;;;17.40;50.30;;;;;;5074639;28;20181;-63
2021/04/12 00:50:41;;;;;;;0.60;0.60;;;17.40;50.30;;;;;;5073705;28;20537;-62
2021/04/12 00:53:22;;;;;;;0.82;0.70;;;17.40;50.30;;;;;;5057395;28;20178;-68
2021/04/12 00:56:03;;;;;;;0.80;0.80;;;17.40;50.40;;;;;;5074553;28;20253;-64
2021/04/12 00:58:34;;;;;;;0.80;0.80;;;17.30;50.30;;;;;;5057473;28;20209;-66
2021/04/12 01:01:11;;;;;;;0.80;0.70;;;17.30;50.20;;;;;;5074416;28;20174;-63
2021/04/12 01:04:21;;;;;;;0.77;0.70;;;17.30;50.20;;;;;;5074234;28;20178;-71
2021/04/12 01:07:02;;;;;;;1.05;0.70;;;17.30;50.20;;;;;;5072676;28;20197;-64
2021/04/12 01:09:49;;;;;;;0.98;0.80;;;17.30;50.20;;;;;;5074044;28;20178;-65
2021/04/12 01:12:56;;;;;;;0.70;0.68;;;17.30;50.10;;;;;;5075131;28;20220;-66
2021/04/12 01:15:45;;;;;;;1.05;0.70;;;17.30;50.10;;;;;;5078909;28;20180;-66
2021/04/12 01:18:39;;;;;;;1.30;0.77;;;17.20;50.10;;;;;;5094330;28;20165;-65
2021/04/12 01:21:11;;;;;;;0.73;0.60;;;17.20;50.00;;;;;;5052850;28;20192;-64
2021/04/12 01:23:55;;;;;;;0.90;0.90;;;17.20;50.00;;;;;;5094042;28;20174;-67
2021/04/12 01:26:44;;;;;;;0.93;0.70;;;17.20;50.00;;;;;;5093481;28;20174;-68
2021/04/12 01:29:27;;;;;;;0.82;0.80;;;17.20;50.10;;;;;;5076136;28;20193;-64
2021/04/12 01:31:56;;;;;;;1.90;0.88;;;17.20;50.10;;;;;;5093907;28;20300;-70
2021/04/12 01:34:36;;;;;;;0.70;0.70;;;17.20;50.10;;;;;;5093010;28;20166;-66
2021/04/12 01:37:27;;;;;;;1.75;0.88;;;17.20;50.20;;;;;;5094048;28;20641;-69
2021/04/12 01:40:28;;;;;;;0.88;0.77;;;17.10;50.10;;;;;;5093304;28;20528;-66
2021/04/12 01:43:06;;;;;;;0.82;0.70;;;17.10;50.10;;;;;;5079963;28;20210;-70
2021/04/12 01:45:56;;;;;;;1.25;0.80;;;17.10;50.10;;;;;;5093508;28;20169;-70
2021/04/12 01:48:58;;;;;;;0.63;0.63;;;17.10;50.20;;;;;;5092926;28;20618;-64
2021/04/12 01:52:03;;;;;;;0.98;0.63;;;17.10;50.20;;;;;;5061407;28;20213;-65
2021/04/12 01:55:19;;;;;;;1.23;0.88;;;17.10;50.20;;;;;;5077638;28;20184;-67
2021/04/12 01:58:09;;;;;;;1.20;0.70;;;17.10;50.20;;;;;;5011629;28;20279;-64
2021/04/12 02:00:49;;;;;;;0.60;0.60;;;17.10;50.30;;;;;;5072220;28;20277;-64
2021/04/12 02:03:27;;;;;;;0.75;0.60;;;17.10;50.20;;;;;;5075350;28;20191;-71
2021/04/12 02:06:27;;;;;;;0.70;0.70;;;17.00;50.20;;;;;;5093341;28;20169;-71
2021/04/12 02:09:24;;;;;;;0.80;0.80;;;17.00;50.20;;;;;;5060458;28;20231;-68
2021/04/12 02:11:58;;;;;;;0.60;0.60;;;17.00;50.20;;;;;;5093156;28;20212;-66
2021/04/12 02:14:54;;;;;;;0.90;0.75;;;17.00;50.20;;;;;;5058717;28;20225;-68
2021/04/12 02:17:39;;;;;;;1.38;0.73;;;17.00;50.20;;;;;;5074906;28;20169;-65
2021/04/12 02:20:14;;;;;;;0.70;0.68;;;17.00;50.20;;;;;;5093059;28;20249;-65
2021/04/12 02:23:11;;;;;;;1.17;0.90;;;17.00;50.20;;;;;;5074399;28;20173;-64
2021/04/12 02:25:56;;;;;;;2.40;0.75;;;17.00;50.20;;;;;;5092809;28;20178;-68
2021/04/12 02:28:47;;;;;;;0.88;0.60;;;17.00;50.10;;;;;;5092806;28;20247;-69
2021/04/12 02:31:23;;;;;;;1.00;0.80;;;17.00;50.10;;;;;;5076676;28;20715;-69
2021/04/12 02:34:11;;;;;;;0.80;0.70;;;16.90;50.10;;;;;;5076100;28;20533;-65
2021/04/12 02:37:08;;;;;;;1.33;0.93;;;16.90;50.10;;;;;;5057682;28;20169;-66
2021/04/12 02:40:09;;;;;;;0.63;0.63;;;16.90;50.10;;;;;;5057931;28;20639;-67
2021/04/12 02:42:44;;;;;;;0.98;0.82;;;16.90;50.00;;;;;;5060468;28;20609;-66
2021/04/12 02:45:26;;;;;;;0.90;0.90;;;16.90;50.00;;;;;;5057967;28;20166;-66
2021/04/12 02:48:13;;;;;;;0.82;0.77;;;16.90;50.10;;;;;;5059074;28;20173;-65
2021/04/12 02:50:46;;;;;;;1.75;0.77;;;16.90;50.00;;;;;;5091839;28;20295;-68
2021/04/12 02:53:41;;;;;;;0.95;0.93;;;16.90;50.00;;;;;;5074880;28;20264;-64
2021/04/12 02:56:44;;;;;;;0.70;0.70;;;16.90;50.00;;;;;;5020455;28;20263;-68
2021/04/12 02:59:48;;;;;;;1.23;0.75;;;16.90;50.00;;;;;;5074212;28;20201;-71
2021/04/12 03:02:25;;;;;;;0.70;0.70;;;16.80;50.00;;;;;;5078723;28;20218;-67
2021/04/12 03:05:06;;;;;;;1.40;0.80;;;16.80;50.00;;;;;;5078149;28;20644;-65
2021/04/12 03:08:02;;;;;;;0.63;0.63;;;16.80;50.00;;;;;;5062924;28;20708;-69
2021/04/12 03:11:25;;;;;;;0.70;0.70;;;16.80;50.00;;;;;;5078463;28;20165;-67
2021/04/12 03:14:28;;;;;;;0.60;0.60;;;16.80;50.00;;;;;;5014486;28;20263;-65
2021/04/12 03:17:12;;;;;;;1.08;0.73;;;16.80;50.00;;;;;;5014906;28;20211;-65
2021/04/12 03:20:19;;;;;;;0.70;0.70;;;16.80;49.90;;;;;;5082725;28;20185;-64
2021/04/12 03:23:03;;;;;;;0.60;0.60;;;16.70;49.90;;;;;;5078667;28;20170;-68
2021/04/12 03:26:20;;;;;;;1.85;0.82;;;16.80;49.90;;;;;;5062578;28;20177;-65
2021/04/12 03:28:51;;;;;;;0.68;0.68;;;16.70;49.90;;;;;;5051470;28;20656;-64
2021/04/12 03:31:20;;;;;;;1.15;0.70;;;16.80;49.90;;;;;;5079022;28;20228;-65
2021/04/12 03:34:10;;;;;;;1.50;0.90;;;16.70;49.90;;;;;;5095744;28;20170;-65
2021/04/12 03:36:38;;;;;;;0.55;0.55;;;16.70;49.90;;;;;;5096075;28;20185;-69
2021/04/12 03:39:15;;;;;;;0.60;0.60;;;16.70;49.90;;;;;;5096230;28;20257;-66
2021/04/12 03:42:04;;;;;;;1.25;0.85;;;16.70;49.90;;;;;;5061323;28;20185;-66
2021/04/12 03:44:50;;;;;;;0.65;0.65;;;16.70;49.90;;;;;;5060942;28;20640;-70
2021/04/12 03:47:27;;;;;;;1.05;0.95;;;16.60;49.80;;;;;;5078585;28;20201;-65
2021/04/12 03:50:20;;;;;;;0.80;0.80;;;16.60;49.90;;;;;;5078085;28;20184;-64
2021/04/12 03:52:57;;;;;;;0.85;0.80;;;16.70;49.90;;;;;;5077961;28;20216;-69
2021/04/12 03:55:35;;;;;;;0.80;0.80;;;16.60;49.80;;;;;;5077131;28;20170;-66
2021/04/12 03:58:09;;;;;;;0.93;0.93;;;16.60;49.90;;;;;;5095839;28;20590;-70
2021/04/12 04:00:56;;;;;;;1.02;0.63;;;16.60;49.90;;;;;;5095206;28;20531;-71
2021/04/12 04:03:24;;;;;;;0.57;0.57;;;16.60;49.90;;;;;;5095708;28;20622;-66
2021/04/12 04:06:19;;;;;;;2.05;0.82;;;16.60;49.90;;;;;;5095737;28;20181;-70
2021/04/12 04:08:55;;;;;;;1.38;0.80;;;16.50;49.80;;;;;;5079503;28;20169;-66
2021/04/12 04:11:24;;;;;;;0.88;0.70;;;16.60;49.90;;;;;;5077396;28;20669;-67
2021/04/12 04:14:18;;;;;;;0.60;0.60;;;16.50;49.80;;;;;;5060064;28;20244;-66
2021/04/12 04:16:51;;;;;;;0.80;0.80;;;16.50;49.80;;;;;;5061605;28;20575;-66
2021/04/12 04:19:42;;;;;;;1.05;0.70;;;16.50;49.70;;;;;;5061253;28;20170;-65
2021/04/12 04:22:14;;;;;;;1.02;0.82;;;16.50;49.90;;;;;;5076730;28;20174;-68
2021/04/12 04:24:51;;;;;;;0.95;0.88;;;16.50;49.80;;;;;;5095205;28;20165;-65
2021/04/12 04:27:54;;;;;;;0.60;0.60;;;16.50;49.80;;;;;;5077317;28;20169;-67
2021/04/12 04:30:38;;;;;;;0.80;0.80;;;16.50;49.70;;;;;;5094302;28;20524;-65
2021/04/12 04:33:30;;;;;;;0.93;0.60;;;16.50;49.80;;;;;;5077777;28;20169;-65
2021/04/12 04:36:14;;;;;;;0.82;0.80;;;16.50;49.70;;;;;;5079228;28;20557;-69
2021/04/12 04:39:05;;;;;;;0.65;0.65;;;16.40;49.70;;;;;;5094975;28;20203;-66
2021/04/12 04:41:41;;;;;;;0.73;0.73;;;16.50;49.80;;;;;;5095019;28;20169;-68
2021/04/12 04:44:16;;;;;;;0.50;0.50;;;16.40;49.70;;;;;;5076350;28;20231;-65
2021/04/12 04:47:05;;;;;;;1.50;0.88;;;16.40;49.70;;;;;;5060550;28;20261;-65
2021/04/12 04:49:34;;;;;;;0.90;0.82;;;16.40;49.80;;;;;;5076686;28;20503;-64
2021/04/12 04:52:15;;;;;;;1.23;0.80;;;16.40;49.70;;;;;;5076268;28;20262;-68
2021/04/12 04:54:41;;;;;;;1.15;1.00;;;16.40;49.70;;;;;;5094517;28;20637;-67
2021/04/12 04:57:16;;;;;;;0.75;0.75;;;16.40;49.80;;;;;;5076329;28;20384;-64
2021/04/12 05:00:21;;;;;;;1.30;0.85;;;16.40;49.70;;;;;;5094410;28;20244;-65
2021/04/12 05:03:15;;;;;;;0.65;0.65;;;16.40;49.80;;;;;;5079529;28;20252;-64
2021/04/12 05:06:18;;;;;;;0.65;0.65;;;16.30;49.70;;;;;;5061505;28;20177;-65
2021/04/12 05:09:15;;;;;;;0.75;0.70;;;16.30;49.80;;;;;;5094653;28;20248;-67
2021/04/12 05:11:43;;;;;;;0.90;0.70;;;16.40;49.70;;;;;;5078362;28;20661;-65
2021/04/12 05:14:47;;;;;;;0.90;0.60;;;16.40;49.80;;;;;;5094132;28;20257;-67
2021/04/12 05:17:43;;;;;;;1.00;0.60;;;16.50;49.90;;;;;;5094419;28;20170;-68
2021/04/12 05:20:39;;;;;;;0.90;0.70;;;16.70;49.70;;;;;;5093656;28;20529;-68
2021/04/12 05:23:35;;;;;;;0.98;0.77;;;17.00;49.50;;;;;;5094254;28;20282;-64
2021/04/12 05:26:06;;;;;;;0.80;0.80;;;17.30;49.10;;;;;;5092728;28;20184;-68
2021/04/12 05:29:03;;;;;;;0.88;0.70;;;17.60;48.70;;;;;;5093899;28;20173;-63
2021/04/12 05:31:32;;;;;;;0.60;0.60;;;17.80;48.20;;;;;;5061891;28;20279;-64
2021/04/12 05:34:06;;;;;;;0.60;0.60;;;18.00;47.90;;;;;;5093253;28;20174;-70
2021/04/12 05:36:43;;;;;;;0.60;0.40;;;18.20;47.60;;;;;;5093725;28;20173;-66
2021/04/12 05:39:25;;;;;;;0.98;0.60;;;18.40;47.20;;;;;;5075328;28;20656;-67
2021/04/12 05:42:28;;;;;;;0.60;0.57;;;18.50;47.00;;;;;;5075828;28;20273;-67
2021/04/12 05:44:59;;;;;;;1.17;0.80;;;18.40;46.90;;;;;;5075520;28;20233;-68
2021/04/12 05:47:30;;;;;;;0.57;0.57;;;18.40;47.00;;;;;;5074910;28;20216;-63
2021/04/12 05:50:13;;;;;;;0.50;0.50;;;18.40;47.10;;;;;;5057150;28;20251;-70
2021/04/12 05:53:03;;;;;;;0.85;0.65;;;18.40;47.70;;;;;;5075287;28;20288;-64
2021/04/12 05:56:14;;;;;;;1.05;0.50;;;18.40;47.10;;;;;;5093276;28;20162;-61
2021/04/12 05:58:54;;;;;;;2.30;0.75;;;18.50;47.20;;;;;;5041678;28;20543;-60
2021/04/12 06:01:25;;;;;;;3.40;1.25;;;18.50;48.20;;;;;;5072363;28;20518;-64
2021/04/12 06:03:56;;;;;;;2.10;1.00;;;18.50;47.60;;;;;;5038789;28;20606;-67
2021/04/12 06:06:30;;;;;;;1.25;0.90;;;18.50;48.10;;;;;;5081542;28;20185;-63
2021/04/12 06:09:29;;;;;;;2.05;0.80;;;18.40;47.90;;;;;;5074323;28;20173;-62
2021/04/12 06:12:25;;;;;;;4.85;1.45;;;18.40;48.10;;;;;;5092871;28;20213;-68
2021/04/12 06:15:09;;;;;;;2.05;1.23;;;18.30;47.90;;;;;;5092312;28;20591;-60
2021/04/12 06:17:38;;;;;;;1.63;1.08;;;18.20;48.10;;;;;;5074653;28;20173;-73
2021/04/12 06:20:30;;;;;;;1.95;0.90;;;18.20;48.20;;;;;;5074662;28;20181;-64
2021/04/12 06:23:34;;;;;;;3.20;0.77;;;18.20;48.40;;;;;;5036329;28;20174;-65
2021/04/12 06:26:24;;;;;;;4.47;1.75;;;18.20;48.80;;;;;;5092833;28;20161;-65
2021/04/12 06:28:58;;;;;;;3.33;1.00;;;18.20;48.60;;;;;;5092388;28;20700;-65
2021/04/12 06:31:32;;;;;;;3.67;0.88;;;18.30;48.70;;;;;;5092498;28;20209;-65
2021/04/12 06:34:25;;;;;;;3.08;0.95;;;18.20;48.60;;;;;;5074665;28;20173;-67
2021/04/12 06:37:07;;;;;;;1.73;0.90;;;18.20;48.50;;;;;;5091995;28;20165;-67
2021/04/12 06:39:51;;;;;;;3.17;1.52;;;18.20;48.40;;;;;;5092269;28;20162;-66
2021/04/12 06:42:40;;;;;;;3.90;1.23;;;18.10;48.40;;;;;;5092165;28;20511;-71
2021/04/12 06:45:33;;;;;;;1.35;0.80;;;18.00;48.30;;;;;;5092675;28;20248;-66
2021/04/12 06:48:18;;;;;;;3.53;1.02;;;18.00;48.40;;;;;;5092782;28;20169;-64
2021/04/12 06:51:02;;;;;;;4.13;1.00;;;18.00;48.70;;;;;;5097127;28;20215;-72
2021/04/12 06:53:54;;;;;;;2.60;1.20;;;18.00;48.80;;;;;;5092375;28;20169;-68
2021/04/12 06:56:39;;;;;;;3.28;1.10;;;18.00;48.90;;;;;;5056993;28;20178;-63
2021/04/12 06:59:14;;;;;;;1.10;0.77;;;18.10;49.10;;;;;;5055035;28;20167;-65
2021/04/12 07:02:10;;;;;;;1.85;0.98;;;18.10;49.10;;;;;;5053897;28;20218;-66
2021/04/12 07:05:00;;;;;;;1.83;1.10;;;18.20;49.20;;;;;;5071230;28;20167;-64
2021/04/12 07:08:03;;;;;;;2.25;0.90;;;18.30;49.20;;;;;;5072093;28;20194;-68
2021/04/12 07:10:35;;;;;;;2.15;0.77;;;18.30;49.00;;;;;;5071227;28;20644;-67
2021/04/12 07:13:54;;;;;;;4.88;1.20;;;18.20;48.90;;;;;;5106622;28;20213;-61
2021/04/12 07:16:47;;;;;;;5.35;1.25;;;18.20;48.60;;;;;;5009679;28;20278;-60
2021/04/12 07:19:40;;;;;;;3.05;1.25;;;18.10;48.00;;;;;;5077386;28;20529;-65
2021/04/12 07:22:15;;;;;;;4.03;1.08;;;18.10;48.10;;;;;;5112377;28;20202;-60
2021/04/12 07:24:49;;;;;;;1.60;0.82;;;18.10;48.10;;;;;;5093754;28;20905;-60
2021/04/12 07:27:52;;;;;;;0.88;0.88;;;18.10;48.20;;;;;;5095461;28;20176;-60
2021/04/12 07:30:36;;;;;;;2.00;0.90;;;18.20;48.30;;;;;;5112736;28;20650;-61
2021/04/12 07:33:24;;;;;;;2.50;0.98;;;18.20;48.10;;;;;;5111976;28;20230;-61
2021/04/12 07:36:23;;;;;;;1.13;1.00;;;18.30;48.10;;;;;;5078581;28;20169;-61
2021/04/12 07:39:26;;;;;;;2.55;1.00;;;18.30;48.10;;;;;;5093902;28;20165;-61
2021/04/12 07:42:28;;;;;;;2.63;0.93;;;18.30;48.10;;;;;;5112562;28;20169;-63
2021/04/12 07:45:31;;;;;;;1.25;0.88;;;18.30;48.10;;;;;;5097322;28;20196;-60
2021/04/12 07:48:08;;;;;;;3.10;0.90;;;18.30;48.30;;;;;;5113337;28;20165;-60
2021/04/12 07:50:49;;;;;;;2.38;0.80;;;18.20;48.40;;;;;;5097978;28;20264;-60
2021/04/12 07:53:33;;;;;;;4.40;0.95;;;18.20;48.60;;;;;;5115910;28;20158;-60
2021/04/12 07:56:05;;;;;;;2.05;1.00;;;18.20;48.50;;;;;;5116218;28;20165;-60
2021/04/12 07:58:51;;;;;;;1.55;0.85;;;18.30;48.60;;;;;;5099227;28;20170;-61
2021/04/12 08:01:48;;;;;;;1.77;0.77;;;18.30;48.50;;;;;;5095330;28;20176;-61
2021/04/12 08:04:51;;;;;;;2.70;1.00;;;18.30;48.40;;;;;;5077733;28;20171;-61
2021/04/12 08:07:43;;;;;;;3.35;1.10;;;18.30;48.40;;;;;;5095178;28;20170;-61
2021/04/12 08:10:46;;;;;;;1.15;0.90;;;18.30;48.50;;;;;;5048237;28;20201;-62
2021/04/12 08:13:30;;;;;;;1.05;0.63;;;18.30;48.50;;;;;;5077216;28;20282;-67
2021/04/12 08:16:05;;;;;;;1.40;0.88;;;18.30;48.80;;;;;;5076834;28;20194;-60
2021/04/12 08:18:33;;;;;;;1.83;0.90;;;18.20;48.80;;;;;;5095562;28;20177;-61
2021/04/12 08:21:23;;;;;;;1.67;0.60;;;18.20;48.90;;;;;;5094440;28;20174;-60
2021/04/12 08:24:40;;;;;;;1.50;0.85;;;18.10;49.00;;;;;;5095397;28;20173;-60
2021/04/12 08:27:25;;;;;;;1.02;0.73;;;18.10;49.00;;;;;;5039442;28;20236;-60
2021/04/12 08:30:19;;;;;;;2.78;0.90;;;18.10;49.00;;;;;;5076635;28;20162;-69
2021/04/12 08:33:08;;;;;;;1.70;0.80;;;18.10;48.90;;;;;;5095234;28;20220;-69
2021/04/12 08:36:01;;;;;;;1.45;0.90;;;18.20;48.80;;;;;;5094398;28;20657;-61
2021/04/12 08:38:49;;;;;;;1.42;0.90;;;18.10;48.90;;;;;;5094966;28;20228;-68
2021/04/12 08:41:31;;;;;;;0.82;0.65;;;18.00;48.80;;;;;;5078085;28;20166;-63
2021/04/12 08:44:15;;;;;;;5.72;0.90;;;18.00;48.80;;;;;;5076111;28;20636;-60
2021/04/12 08:46:44;;;;;;;0.88;0.68;;;18.10;48.80;;;;;;5094655;28;20169;-61
2021/04/12 08:49:32;;;;;;;1.13;0.80;;;18.20;48.60;;;;;;5076109;28;20181;-60
2021/04/12 08:52:35;;;;;;;1.23;0.70;;;18.30;48.60;;;;;;5079607;28;20245;-60
2021/04/12 08:55:49;;;;;;;2.00;0.90;;;18.20;48.50;;;;;;5079425;28;20629;-62
2021/04/12 08:58:39;;;;;;;1.15;0.80;;;18.20;48.60;;;;;;5005040;28;20606;-61
2021/04/12 09:01:11;;;;;;;1.30;0.93;;;18.20;48.60;;;;;;5093456;28;20637;-62
2021/04/12 09:03:58;;;;;;;0.77;0.77;;;18.10;48.70;;;;;;5093840;28;20174;-61
2021/04/12 09:06:45;;;;;;;2.25;0.70;;;18.10;48.70;;;;;;5094459;28;20165;-62
2021/04/12 09:09:35;;;;;;;0.98;0.73;;;18.00;48.70;;;;;;5094568;28;20217;-61
2021/04/12 09:12:11;;;;;;;0.73;0.63;;;17.90;48.80;;;;;;5060802;28;20262;-60
2021/04/12 09:15:16;;;;;;;1.35;0.70;;;17.90;49.00;;;;;;5075948;28;20219;-60
2021/04/12 09:17:55;;;;;;;2.33;0.80;;;17.90;48.90;;;;;;5110765;28;20180;-74
2021/04/12 09:20:33;;;;;;;0.77;0.60;;;17.90;48.90;;;;;;5096732;28;20176;-69
2021/04/12 09:23:33;;;;;;;3.13;0.77;;;17.90;48.80;;;;;;5114444;28;20172;-67
2021/04/12 09:26:51;;;;;;;2.72;1.05;;;18.10;48.70;;;;;;5095579;28;20190;-60
2021/04/12 09:29:22;;;;;;;3.40;0.85;;;18.10;48.40;;;;;;5035142;28;20189;-68
2021/04/12 09:32:07;;;;;;;1.85;0.63;;;18.20;48.50;;;;;;5112749;28;20284;-66
2021/04/12 09:34:59;;;;;;;2.85;0.63;;;18.20;48.50;;;;;;5114110;28;20218;-67
2021/04/12 09:38:15;;;;;;;5.45;0.93;;;18.20;48.40;;;;;;5098007;28;20181;-67
2021/04/12 09:41:15;;;;;;;2.67;0.95;;;18.20;48.40;;;;;;5011629;28;20180;-67
2021/04/12 09:43:53;;;;;;;2.05;0.60;;;18.20;47.50;;;;;;4975389;28;20192;-67
2021/04/12 09:46:40;;;;;;;3.58;0.60;;;18.20;47.80;;;;;;5075639;28;20185;-65
2021/04/12 09:49:33;;;;;;;2.38;0.90;;;18.20;47.50;;;;;;5093649;28;20169;-63
2021/04/12 09:52:20;;;;;;;1.67;0.73;;;18.40;47.40;;;;;;5075484;28;20209;-62
2021/04/12 09:55:25;;;;;;;2.50;0.70;;;18.30;47.50;;;;;;5094097;28;20193;-63
2021/04/12 09:58:23;;;;;;;1.52;0.70;;;18.40;47.50;;;;;;5055212;28;20178;-66
2021/04/12 10:00:57;;;;;;;1.23;0.70;;;18.40;47.60;;;;;;5072621;28;20198;-64
2021/04/12 10:04:00;;;;;;;1.23;0.57;;;18.50;47.70;;;;;;5074463;28;20224;-63
2021/04/12 10:06:50;;;;;;;4.70;0.95;;;18.50;47.90;;;;;;5076283;28;20238;-64
2021/04/12 10:09:30;;;;;;;1.50;0.77;;;18.50;48.00;;;;;;5093332;28;20158;-63
2021/04/12 10:12:24;;;;;;;1.05;0.75;;;18.50;47.90;;;;;;5092691;28;20236;-67
2021/04/12 10:15:01;;;;;;;1.98;0.70;;;18.60;47.90;;;;;;5092439;28;20177;-63
2021/04/12 10:17:39;;;;;;;3.33;0.80;;;18.50;47.90;;;;;;5075907;28;20170;-69
2021/04/12 10:20:12;;;;;;;2.13;0.85;;;18.50;48.00;;;;;;5058837;28;20169;-70
2021/04/12 10:22:57;;;;;;;2.95;0.80;;;18.50;47.90;;;;;;5058381;28;20243;-68
2021/04/12 10:25:27;;;;;;;3.35;0.93;;;18.40;47.90;;;;;;5074571;28;20624;-68
2021/04/12 10:27:53;;;;;;;1.70;0.70;;;18.30;48.30;;;;;;5092346;28;20237;-64
2021/04/12 10:30:37;;;;;;;1.00;0.70;;;18.30;48.00;;;;;;5040978;28;20307;-63
2021/04/12 10:33:07;;;;;;;3.20;0.80;;;18.40;48.00;;;;;;5058389;28;20178;-62
2021/04/12 10:35:43;;;;;;;1.85;0.90;;;18.50;47.90;;;;;;5073767;28;20689;-63
2021/04/12 10:38:19;;;;;;;1.67;0.70;;;18.50;47.90;;;;;;5058320;28;20157;-62
2021/04/12 10:40:51;;;;;;;1.60;0.82;;;18.50;47.90;;;;;;5059289;28;20169;-62
2021/04/12 10:43:31;;;;;;;2.35;0.50;;;18.60;47.80;;;;;;5075006;28;20231;-61
2021/04/12 10:45:58;;;;;;;2.15;0.95;;;18.70;48.50;;;;;;5074437;28;20696;-63
2021/04/12 10:48:29;;;;;;;2.28;0.80;;;18.70;47.90;;;;;;5073952;28;20174;-62
2021/04/12 10:51:01;;;;;;;1.33;0.70;;;18.60;48.00;;;;;;5057950;28;20201;-60
2021/04/12 10:53:36;;;;;;;1.13;0.55;;;18.50;48.20;;;;;;5074004;28;20637;-64
2021/04/12 10:56:22;;;;;;;2.72;0.70;;;18.40;48.50;;;;;;5092025;28;20246;-61
2021/04/12 10:59:07;;;;;;;2.70;1.02;;;18.40;48.40;;;;;;5077252;28;20218;-60
2021/04/12 11:02:10;;;;;;;2.80;0.70;;;18.50;48.20;;;;;;5092633;28;20178;-60
2021/04/12 11:05:03;;;;;;;1.88;0.85;;;18.50;48.20;;;;;;5091765;28;20248;-60
2021/04/12 11:07:53;;;;;;;1.65;0.80;;;18.50;48.20;;;;;;5074445;28;20522;-64
2021/04/12 11:10:24;;;;;;;0.98;0.60;;;18.60;48.10;;;;;;5091825;28;20170;-63
2021/04/12 11:12:57;;;;;;;2.28;0.75;;;18.50;48.10;;;;;;5074125;28;20217;-63
2021/04/12 11:15:49;;;;;;;2.97;0.75;;;18.60;48.10;;;;;;5057952;28;20195;-68
2021/04/12 11:18:36;;;;;;;1.35;0.70;;;18.60;48.10;;;;;;5087299;28;20617;-66
2021/04/12 11:21:06;;;;;;;1.95;0.80;;;18.60;48.00;;;;;;5092486;28;20177;-66
2021/04/12 11:23:33;;;;;;;0.55;0.55;;;18.50;48.00;;;;;;5058261;28;20177;-67
2021/04/12 11:26:07;;;;;;;3.17;0.90;;;18.50;47.40;;;;;;5078472;28;20617;-68
2021/04/12 11:28:58;;;;;;;0.70;0.43;;;18.50;46.40;;;;;;5076287;28;20583;-68
2021/04/12 11:32:00;;;;;;;2.25;0.60;;;18.40;47.00;;;;;;5077417;28;20770;-70
2021/04/12 11:34:31;;;;;;;2.35;0.98;;;18.50;47.10;;;;;;5095702;28;20183;-69
2021/04/12 11:37:12;;;;;;;1.75;0.60;;;18.40;47.10;;;;;;5078046;28;20162;-68
2021/04/12 11:39:40;;;;;;;0.68;0.60;;;18.40;47.20;;;;;;5077461;28;20208;-67
2021/04/12 11:42:19;;;;;;;1.00;0.52;;;18.40;47.10;;;;;;5061691;28;20173;-68
2021/04/12 11:45:03;;;;;;;1.90;0.43;;;18.40;47.20;;;;;;5062339;28;20158;-69
2021/04/12 11:47:45;;;;;;;0.55;0.47;;;18.40;47.30;;;;;;5096021;28;20185;-69
2021/04/12 11:50:38;;;;;;;1.13;0.35;;;18.50;47.20;;;;;;5062255;28;20174;-68
2021/04/12 11:53:26;;;;;;;1.05;0.32;;;18.60;47.10;;;;;;5077498;28;20181;-68
2021/04/12 11:56:24;;;;;;;1.60;0.60;;;18.50;47.20;;;;;;5095735;28;20173;-68
2021/04/12 11:58:50;;;;;;;0.75;0.40;;;18.50;47.30;;;;;;5062089;28;20528;-76
2021/04/12 12:01:27;;;;;;;1.10;0.75;;;18.40;47.30;;;;;;5077898;28;20170;-68
2021/04/12 12:04:10;;;;;;;0.50;0.50;;;18.30;47.50;;;;;;5077521;28;20166;-68
2021/04/12 12:06:49;;;;;;;1.38;0.60;;;18.30;47.60;;;;;;5095060;28;20165;-69
2021/04/12 12:09:21;;;;;;;0.40;0.40;;;18.40;47.40;;;;;;5062618;28;20177;-75
2021/04/12 12:12:07;;;;;;;0.65;0.55;;;18.50;47.30;;;;;;5095825;28;20194;-67
2021/04/12 12:14:36;;;;;;;0.70;0.60;;;18.40;47.10;;;;;;5059836;28;20211;-67
2021/04/12 12:17:03;;;;;;;0.75;0.30;;;18.40;47.30;;;;;;5095619;28;20174;-67
2021/04/12 12:19:51;;;;;;;0.90;0.40;;;18.30;47.40;;;;;;5060747;28;20172;-67
2021/04/12 12:22:24;;;;;;;1.30;0.40;;;18.30;47.50;;;;;;5077558;28;20158;-66
2021/04/12 12:25:17;;;;;;;0.98;0.40;;;18.30;47.40;;;;;;5094785;28;20166;-67
2021/04/12 12:28:02;;;;;;;0.60;0.40;;;18.30;47.50;;;;;;5076599;28;20176;-72
2021/04/12 12:30:51;;;;;;;1.52;0.57;;;18.30;47.50;;;;;;5079998;28;20162;-77
2021/04/12 12:33:29;;;;;;;1.20;0.43;;;18.40;47.10;;;;;;5077126;28;20178;-69
2021/04/12 12:36:42;;;;;;;0.50;0.50;;;18.40;47.20;;;;;;5094399;28;20181;-68
2021/04/12 12:39:47;;;;;;;0.93;0.45;;;18.40;47.30;;;;;;4974046;28;20186;-67
2021/04/12 12:42:19;;;;;;;0.47;0.38;;;18.20;47.50;;;;;;4918959;29;20276;-67
2021/04/12 12:44:45;;;;;;;0.40;0.40;;;18.20;47.60;;;;;;4979589;28;20574;-74
2021/04/12 12:47:15;;;;;;;0.88;0.45;;;18.10;47.70;;;;;;5027837;28;20642;-77
2021/04/12 12:50:00;;;;;;;0.50;0.50;;;18.10;47.80;;;;;;5056621;28;20229;-67
2021/04/12 12:52:44;;;;;;;0.50;0.50;;;18.10;47.80;;;;;;5056643;28;20293;-70
2021/04/12 12:55:12;;;;;;;2.45;0.50;;;18.20;47.50;;;;;;5057893;28;20630;-71
2021/04/12 12:57:39;;;;;;;0.77;0.43;;;18.20;48.10;;;;;;5056525;28;20171;-69
2021/04/12 13:00:35;;;;;;;0.52;0.38;;;18.20;47.50;;;;;;5056861;28;20174;-70
2021/04/12 13:03:12;;;;;;;1.10;0.40;;;18.20;47.50;;;;;;5052612;28;20217;-79
2021/04/12 13:05:38;;;;;;;0.47;0.47;;;18.10;47.50;;;;;;5057903;28;20700;-69
2021/04/12 13:08:15;;;;;;;0.73;0.55;;;18.00;47.60;;;;;;5056880;28;20182;-78
2021/04/12 13:10:44;;;;;;;1.35;0.50;;;17.90;47.70;;;;;;5055624;28;20170;-68
2021/04/12 13:13:20;;;;;;;0.40;0.40;;;17.90;47.90;;;;;;5056058;28;20592;-75
2021/04/12 13:15:45;;;;;;;1.08;0.75;;;17.80;47.90;;;;;;5057076;28;20646;-71
2021/04/12 13:18:11;;;;;;;0.45;0.40;;;17.80;48.50;;;;;;5055484;28;20224;-75
2021/04/12 13:20:50;;;;;;;0.52;0.50;;;17.80;47.70;;;;;;5073275;28;20176;-68
2021/04/12 13:23:30;;;;;;;0.63;0.50;;;17.80;47.70;;;;;;5055260;28;20171;-66
2021/04/12 13:25:57;;;;;;;2.20;0.40;;;17.80;47.70;;;;;;5055965;28;20185;-66
2021/04/12 13:28:41;;;;;;;0.55;0.40;;;17.80;47.60;;;;;;5039309;28;20587;-66
2021/04/12 13:31:09;;;;;;;1.00;0.40;;;18.00;47.70;;;;;;5055551;28;20194;-64
2021/04/12 13:33:35;;;;;;;0.73;0.30;;;18.20;47.50;;;;;;5055815;28;20274;-66
2021/04/12 13:36:08;;;;;;;0.30;0.30;;;18.20;47.50;;;;;;5055688;28;20198;-67
2021/04/12 13:38:36;;;;;;;0.93;0.50;;;18.30;47.40;;;;;;5054783;28;20175;-65
2021/04/12 13:41:10;;;;;;;1.30;0.95;;;18.40;47.40;;;;;;5055676;28;20178;-66
2021/04/12 13:43:42;;;;;;;2.63;0.57;;;18.50;47.30;;;;;;5055484;28;20563;-66
2021/04/12 13:46:28;;;;;;;1.92;0.40;;;18.40;47.70;;;;;;5054417;28;20174;-66
2021/04/12 13:49:02;;;;;;;0.90;0.50;;;18.30;47.70;;;;;;5055007;28;20162;-70
2021/04/12 13:51:49;;;;;;;1.25;0.45;;;18.20;47.90;;;;;;5071263;28;20233;-70
2021/04/12 13:54:18;;;;;;;0.55;0.52;;;18.30;47.90;;;;;;5072448;28;20177;-69
2021/04/12 13:57:13;;;;;;;0.70;0.57;;;18.40;47.60;;;;;;5073296;28;20261;-71
2021/04/12 13:59:40;;;;;;;0.65;0.50;;;18.50;47.50;;;;;;5037632;28;20214;-72
2021/04/12 14:02:26;;;;;;;0.50;0.50;;;18.60;47.20;;;;;;5055232;28;20170;-71
2021/04/12 14:04:56;;;;;;;4.60;0.80;;;18.70;47.10;;;;;;5055544;28;20501;-72
2021/04/12 14:07:41;;;;;;;1.38;0.38;;;18.70;47.00;;;;;;5072308;28;20265;-71
2021/04/12 14:10:21;;;;;;;0.40;0.40;;;18.70;46.90;;;;;;5071877;28;20269;-72
2021/04/12 14:12:59;;;;;;;0.45;0.45;;;18.60;46.90;;;;;;5070935;28;20248;-71
2021/04/12 14:15:34;;;;;;;0.63;0.47;;;18.70;46.80;;;;;;5054964;28;20173;-63
2021/04/12 14:18:04;;;;;;;0.60;0.60;;;18.80;46.30;;;;;;5086371;28;20181;-63